Time;durP1;ratioP1;P1;durP2;ratioP2;P2;SDS_P1;SDS_P2;PMS_P1;PMS_P2;Temp;Humidity;BMP_temperature;BMP_pressure;BME280_temperature;BME280_humidity;BME280_pressure;Samples;Min_cycle;Max_cycle;Signal;HPM_P1;HPM_P2
2022/04/06 00:01:45;;;;;;;9.90;6.18;;;12.90;72.60;;;;;;5036556;28;20084;-77
2022/04/06 00:04:11;;;;;;;8.80;6.07;;;12.90;72.60;;;;;;5037729;28;20021;-76
2022/04/06 00:06:37;;;;;;;7.95;5.72;;;12.90;72.60;;;;;;5035087;28;20056;-77
2022/04/06 00:09:04;;;;;;;8.85;5.70;;;12.90;72.60;;;;;;5023039;28;20406;-76
2022/04/06 00:11:30;;;;;;;9.23;6.25;;;12.90;72.60;;;;;;5006846;28;20027;-76
2022/04/06 00:13:57;;;;;;;8.40;5.88;;;12.90;72.70;;;;;;5034052;28;20233;-76
2022/04/06 00:16:23;;;;;;;7.88;6.03;;;12.90;72.70;;;;;;5031166;28;20040;-76
2022/04/06 00:18:49;;;;;;;8.13;5.60;;;12.90;72.70;;;;;;5017047;28;20030;-77
2022/04/06 00:21:15;;;;;;;7.35;5.28;;;12.90;72.70;;;;;;5047113;28;20486;-77
2022/04/06 00:23:41;;;;;;;8.82;5.88;;;12.90;72.70;;;;;;5039334;28;20033;-76
2022/04/06 00:26:08;;;;;;;7.78;5.45;;;12.90;72.70;;;;;;5016029;28;20470;-76
2022/04/06 00:28:34;;;;;;;8.48;5.72;;;12.90;72.80;;;;;;5037993;28;20033;-76
2022/04/06 00:30:59;;;;;;;7.35;4.80;;;12.90;72.70;;;;;;5013622;28;20043;-76
2022/04/06 00:33:25;;;;;;;7.82;5.43;;;12.90;72.70;;;;;;5047471;28;20026;-76
2022/04/06 00:35:51;;;;;;;7.28;5.50;;;12.80;72.60;;;;;;5019462;28;20175;-77
2022/04/06 00:38:17;;;;;;;8.93;5.35;;;12.90;72.80;;;;;;5033922;28;20057;-76
2022/04/06 00:40:43;;;;;;;7.85;5.32;;;12.90;72.70;;;;;;5031323;28;20031;-77
2022/04/06 00:43:11;;;;;;;8.02;5.32;;;12.90;72.70;;;;;;5038027;28;20034;-76
2022/04/06 00:45:39;;;;;;;8.45;5.32;;;12.90;72.80;;;;;;5030645;28;20030;-76
2022/04/06 00:48:05;;;;;;;6.93;5.13;;;12.90;72.80;;;;;;5050103;28;20036;-77
2022/04/06 00:50:31;;;;;;;7.57;5.20;;;12.80;72.70;;;;;;5018837;28;20025;-76
2022/04/06 00:52:57;;;;;;;7.20;4.80;;;12.80;72.70;;;;;;5038882;28;20029;-76
2022/04/06 00:55:38;;;;;;;7.60;4.82;;;12.90;72.80;;;;;;5022724;28;20057;-76
2022/04/06 00:58:04;;;;;;;7.25;5.03;;;12.90;72.80;;;;;;5030088;28;20172;-76
2022/04/06 01:00:31;;;;;;;7.40;5.13;;;12.90;72.80;;;;;;5035643;28;20477;-75
2022/04/06 01:02:58;;;;;;;7.00;4.95;;;12.80;72.80;;;;;;5015847;28;20371;-75
2022/04/06 01:05:25;;;;;;;7.18;5.05;;;12.80;72.80;;;;;;5035979;28;20491;-75
2022/04/06 01:07:54;;;;;;;6.97;4.75;;;12.80;72.80;;;;;;5034667;28;20033;-75
2022/04/06 01:10:20;;;;;;;7.82;4.50;;;12.80;72.80;;;;;;5035551;28;20033;-76
2022/04/06 01:12:47;;;;;;;7.03;4.60;;;12.80;72.80;;;;;;5035297;28;20144;-76
2022/04/06 01:15:14;;;;;;;6.35;4.32;;;12.80;72.80;;;;;;5016068;28;20060;-76
2022/04/06 01:17:40;;;;;;;7.18;5.20;;;12.80;72.80;;;;;;5039001;28;20029;-75
2022/04/06 01:20:08;;;;;;;8.20;5.05;;;12.80;72.80;;;;;;5029585;28;20478;-75
2022/04/06 01:22:35;;;;;;;8.10;5.35;;;12.80;72.80;;;;;;5040379;28;20042;-75
2022/04/06 01:25:02;;;;;;;7.15;5.18;;;12.80;72.80;;;;;;5035063;28;20034;-74
2022/04/06 01:27:28;;;;;;;6.88;4.50;;;12.80;72.80;;;;;;5034399;28;20026;-75
2022/04/06 01:29:54;;;;;;;6.68;4.75;;;12.80;72.80;;;;;;4987969;28;20033;-75
2022/04/06 01:32:26;;;;;;;7.55;5.05;;;12.80;72.80;;;;;;5030132;28;20029;-75
2022/04/06 01:34:54;;;;;;;6.65;4.35;;;12.80;72.90;;;;;;5012562;28;20072;-76
2022/04/06 01:37:21;;;;;;;7.07;4.63;;;12.80;72.80;;;;;;5028937;28;20026;-76
2022/04/06 01:39:48;;;;;;;7.88;5.18;;;12.80;72.80;;;;;;5039679;28;20112;-76
2022/04/06 01:42:17;;;;;;;7.55;4.97;;;12.80;72.80;;;;;;5024821;28;20090;-76
2022/04/06 01:44:45;;;;;;;10.18;4.75;;;12.80;72.80;;;;;;5019097;28;20022;-76
2022/04/06 01:47:11;;;;;;;8.10;4.60;;;12.80;72.80;;;;;;5039304;28;20074;-76
2022/04/06 01:52:22;;;;;;;6.32;4.53;;;12.80;72.80;;;;;;5032742;28;20075;-76
2022/04/06 01:54:51;;;;;;;6.45;4.97;;;12.70;72.70;;;;;;5045807;28;20486;-75
2022/04/06 01:57:18;;;;;;;8.15;5.22;;;12.80;72.80;;;;;;5024959;28;20366;-75
2022/04/06 01:59:44;;;;;;;6.60;4.05;;;12.80;72.90;;;;;;5024162;28;20029;-76
2022/04/06 02:02:13;;;;;;;5.95;4.05;;;12.80;72.90;;;;;;5038914;28;20036;-76
2022/04/06 02:04:39;;;;;;;7.20;4.95;;;12.80;73.50;;;;;;5012281;28;20036;-75
2022/04/06 02:07:06;;;;;;;6.25;4.50;;;12.70;72.90;;;;;;5021327;28;20037;-75
2022/04/06 02:09:31;;;;;;;6.10;4.00;;;12.80;72.90;;;;;;5032473;28;20053;-76
2022/04/06 02:12:00;;;;;;;7.32;4.28;;;12.80;72.90;;;;;;5023853;28;20040;-75
2022/04/06 02:14:26;;;;;;;5.97;4.18;;;12.80;72.90;;;;;;5011055;28;20075;-75
2022/04/06 02:16:52;;;;;;;7.75;4.65;;;12.80;72.90;;;;;;5045208;28;20033;-76
2022/04/06 02:19:18;;;;;;;6.22;4.10;;;12.70;72.80;;;;;;5032575;28;20028;-75
2022/04/06 02:21:44;;;;;;;6.72;4.13;;;12.80;72.90;;;;;;5017193;28;20565;-75
2022/04/06 02:24:10;;;;;;;7.07;4.43;;;12.70;72.90;;;;;;5020471;28;20442;-75
2022/04/06 02:26:36;;;;;;;5.68;4.18;;;12.80;72.90;;;;;;5038691;28;20108;-75
2022/04/06 02:29:02;;;;;;;8.32;4.40;;;12.70;72.80;;;;;;5023456;28;20051;-75
2022/04/06 02:31:28;;;;;;;7.15;3.83;;;12.70;72.90;;;;;;5022947;28;20123;-75
2022/04/06 02:33:54;;;;;;;7.68;4.63;;;12.80;72.90;;;;;;5044298;28;20561;-75
2022/04/06 02:36:20;;;;;;;5.65;3.88;;;12.70;72.90;;;;;;5011393;28;20029;-75
2022/04/06 02:38:47;;;;;;;6.93;4.10;;;12.70;72.90;;;;;;5039131;28;20037;-76
2022/04/06 02:41:13;;;;;;;5.07;3.42;;;12.70;72.90;;;;;;5017563;28;20037;-76
2022/04/06 02:43:39;;;;;;;6.30;3.83;;;12.70;72.90;;;;;;5028874;28;20462;-76
2022/04/06 02:46:05;;;;;;;7.57;4.55;;;12.70;72.90;;;;;;5020167;28;20075;-75
2022/04/06 02:48:32;;;;;;;6.45;3.70;;;12.70;72.90;;;;;;5028730;28;20026;-75
2022/04/06 02:50:57;;;;;;;5.70;4.07;;;12.70;72.90;;;;;;5031426;28;20041;-75
2022/04/06 02:53:23;;;;;;;7.78;3.70;;;12.70;72.90;;;;;;5015483;28;20053;-76
2022/04/06 02:55:49;;;;;;;5.60;3.78;;;12.70;72.90;;;;;;5020620;28;20025;-77
2022/04/06 02:58:16;;;;;;;5.82;3.53;;;12.70;72.90;;;;;;5028547;28;20029;-75
2022/04/06 03:00:41;;;;;;;4.95;3.38;;;12.70;72.90;;;;;;5012016;28;20044;-76
2022/04/06 03:03:08;;;;;;;5.03;2.97;;;12.70;72.90;;;;;;5036717;28;20033;-76
2022/04/06 03:05:33;;;;;;;6.05;3.55;;;12.70;73.00;;;;;;5028754;28;20102;-75
2022/04/06 03:07:59;;;;;;;5.95;3.50;;;12.70;72.90;;;;;;5028295;28;20029;-76
2022/04/06 03:10:25;;;;;;;6.20;3.50;;;12.70;72.90;;;;;;5038965;28;20482;-76
2022/04/06 03:12:51;;;;;;;5.68;3.50;;;12.70;72.90;;;;;;5028409;28;20095;-78
2022/04/06 03:15:17;;;;;;;5.47;3.20;;;12.70;72.90;;;;;;5020666;28;20032;-76
2022/04/06 03:17:43;;;;;;;5.70;3.30;;;12.70;72.90;;;;;;5027722;28;20034;-76
2022/04/06 03:20:11;;;;;;;4.95;3.13;;;12.70;72.90;;;;;;5027952;28;20041;-76
2022/04/06 03:22:37;;;;;;;6.28;3.42;;;12.70;72.90;;;;;;5029822;28;20053;-76
2022/04/06 03:25:03;;;;;;;5.80;3.53;;;12.70;72.90;;;;;;5039844;28;20033;-76
2022/04/06 03:27:29;;;;;;;6.22;3.20;;;12.60;72.90;;;;;;4988880;28;20063;-76
2022/04/06 03:29:55;;;;;;;4.95;3.45;;;12.70;72.90;;;;;;5003711;28;20061;-75
2022/04/06 03:32:20;;;;;;;5.93;3.10;;;12.70;72.90;;;;;;5019640;28;20071;-77
2022/04/06 03:34:46;;;;;;;6.00;3.05;;;12.70;72.90;;;;;;5031461;28;20450;-76
2022/04/06 03:37:12;;;;;;;4.43;2.80;;;12.70;72.90;;;;;;5004978;28;20166;-76
2022/04/06 03:39:38;;;;;;;6.00;3.20;;;12.70;72.90;;;;;;5022133;28;20477;-77
2022/04/06 03:42:04;;;;;;;4.50;2.47;;;12.70;72.90;;;;;;5028110;28;20129;-76
2022/04/06 03:44:30;;;;;;;4.32;2.72;;;12.70;72.90;;;;;;5031304;28;20029;-76
2022/04/06 03:46:56;;;;;;;5.15;2.70;;;12.60;72.80;;;;;;5017037;28;20044;-76
2022/04/06 03:49:22;;;;;;;3.90;2.65;;;12.60;72.90;;;;;;5048747;28;20116;-77
2022/04/06 03:51:48;;;;;;;3.55;2.30;;;12.60;72.90;;;;;;5031859;28;20041;-77
2022/04/06 03:54:14;;;;;;;4.35;2.65;;;12.60;72.90;;;;;;5014730;28;20331;-77
2022/04/06 03:56:40;;;;;;;6.20;2.85;;;12.60;72.80;;;;;;5031589;28;20061;-76
2022/04/06 03:59:06;;;;;;;5.28;2.70;;;12.60;72.90;;;;;;5024124;28;20033;-76
2022/04/06 04:01:35;;;;;;;9.93;3.25;;;12.60;72.80;;;;;;5036968;28;20037;-76
2022/04/06 04:04:01;;;;;;;4.82;2.60;;;12.60;72.80;;;;;;5013304;28;20030;-76
2022/04/06 04:06:27;;;;;;;4.28;2.33;;;12.60;72.90;;;;;;5022102;28;20029;-75
2022/04/06 04:08:53;;;;;;;5.40;2.65;;;12.60;72.90;;;;;;4992257;28;20030;-76
2022/04/06 04:11:19;;;;;;;4.60;2.47;;;12.60;72.90;;;;;;5034084;28;20167;-76
2022/04/06 04:13:45;;;;;;;3.67;2.35;;;12.50;72.90;;;;;;5030949;28;20470;-76
2022/04/06 04:16:10;;;;;;;4.15;2.30;;;12.60;72.90;;;;;;5031284;28;20030;-76
2022/04/06 04:18:36;;;;;;;3.58;2.42;;;12.50;72.80;;;;;;5039108;28;20120;-76
2022/04/06 04:23:47;;;;;;;3.50;2.58;;;12.60;72.90;;;;;;5039439;28;20125;-78
2022/04/06 04:26:12;;;;;;;3.67;2.35;;;12.50;72.80;;;;;;5038583;28;20576;-76
2022/04/06 04:28:38;;;;;;;4.28;2.25;;;12.50;72.80;;;;;;5040992;28;20143;-76
2022/04/06 04:31:04;;;;;;;3.90;2.10;;;12.50;72.90;;;;;;5039314;28;20036;-76
2022/04/06 04:33:30;;;;;;;3.42;2.22;;;12.50;72.90;;;;;;5034378;28;20394;-76
2022/04/06 04:35:56;;;;;;;3.58;2.20;;;12.50;72.90;;;;;;5037518;28;20036;-77
2022/04/06 04:38:22;;;;;;;3.25;2.10;;;12.50;72.80;;;;;;5030662;28;20029;-77
2022/04/06 04:40:48;;;;;;;2.92;2.17;;;12.50;72.80;;;;;;5023662;28;20037;-77
2022/04/06 04:43:14;;;;;;;2.50;1.90;;;12.50;72.80;;;;;;5012719;28;20116;-76
2022/04/06 04:45:40;;;;;;;3.33;2.17;;;12.50;72.90;;;;;;5029658;28;20104;-78
2022/04/06 04:48:05;;;;;;;3.70;2.15;;;12.50;72.80;;;;;;5030732;28;20037;-78
2022/04/06 04:50:31;;;;;;;3.88;2.13;;;12.50;72.80;;;;;;5020156;28;20556;-78
2022/04/06 04:52:57;;;;;;;3.40;2.10;;;12.50;72.80;;;;;;4983472;28;20037;-77
2022/04/06 04:55:23;;;;;;;3.70;2.13;;;12.50;72.80;;;;;;4999787;28;20034;-77
2022/04/06 04:57:48;;;;;;;3.72;2.15;;;12.50;72.80;;;;;;5044302;28;20033;-76
2022/04/06 05:00:15;;;;;;;3.47;1.90;;;12.40;72.70;;;;;;5017330;28;20048;-77
2022/04/06 05:02:41;;;;;;;2.45;1.67;;;12.40;72.80;;;;;;5030071;28;20123;-76
2022/04/06 05:05:08;;;;;;;3.40;1.90;;;12.40;72.80;;;;;;5039277;28;20125;-76
2022/04/06 05:07:37;;;;;;;2.20;1.80;;;12.40;72.80;;;;;;5014714;28;20033;-78
2022/04/06 05:10:09;;;;;;;3.00;1.88;;;12.40;72.80;;;;;;5028829;28;20210;-77
2022/04/06 05:12:35;;;;;;;2.88;1.80;;;12.40;72.80;;;;;;5038292;28;20036;-77
2022/04/06 05:15:01;;;;;;;3.58;2.00;;;12.40;72.80;;;;;;5040422;28;20541;-77
2022/04/06 05:17:28;;;;;;;2.92;1.83;;;12.40;72.80;;;;;;5039187;28;20120;-76
2022/04/06 05:19:54;;;;;;;2.55;1.70;;;12.40;72.80;;;;;;5036388;28;20474;-75
2022/04/06 05:22:20;;;;;;;3.22;1.75;;;12.40;72.80;;;;;;5021812;28;20557;-76
2022/04/06 05:24:47;;;;;;;3.63;1.88;;;12.40;72.80;;;;;;5028119;28;20628;-76
2022/04/06 05:27:13;;;;;;;2.75;1.70;;;12.40;73.40;;;;;;5035816;28;20022;-76
2022/04/06 05:29:38;;;;;;;3.03;1.85;;;12.40;72.80;;;;;;5013244;28;20088;-75
2022/04/06 05:32:04;;;;;;;3.08;1.80;;;12.40;72.80;;;;;;5037347;28;20516;-75
2022/04/06 05:34:30;;;;;;;2.45;1.73;;;12.40;72.80;;;;;;5035829;28;20049;-77
2022/04/06 05:36:56;;;;;;;3.03;1.88;;;12.40;72.80;;;;;;5000854;28;20108;-76
2022/04/06 05:39:22;;;;;;;2.53;1.83;;;12.40;72.80;;;;;;5032809;28;20057;-76
2022/04/06 05:41:49;;;;;;;3.33;1.98;;;12.40;72.80;;;;;;5041813;28;20548;-76
2022/04/06 05:44:16;;;;;;;2.38;1.73;;;12.40;72.80;;;;;;5044574;28;20034;-75
2022/04/06 05:46:42;;;;;;;3.03;1.70;;;12.30;72.80;;;;;;5038580;28;20429;-75
2022/04/06 05:49:08;;;;;;;2.58;1.70;;;12.30;72.70;;;;;;5041061;28;20032;-75
2022/04/06 05:51:34;;;;;;;2.30;1.70;;;12.30;72.70;;;;;;5040941;28;20032;-75
2022/04/06 05:54:03;;;;;;;2.75;1.50;;;12.30;72.70;;;;;;5040595;28;20029;-75
2022/04/06 05:56:29;;;;;;;2.38;1.83;;;12.30;72.70;;;;;;5013360;28;20040;-75
2022/04/06 05:58:55;;;;;;;3.00;1.92;;;12.30;72.70;;;;;;5029332;28;20037;-75
2022/04/06 06:01:22;;;;;;;3.58;1.92;;;12.30;72.70;;;;;;5029649;28;20042;-75
2022/04/06 06:03:47;;;;;;;4.13;2.20;;;12.30;72.70;;;;;;5046408;28;20059;-75
2022/04/06 06:06:13;;;;;;;2.80;1.80;;;12.30;72.70;;;;;;5039848;28;20029;-76
2022/04/06 06:08:39;;;;;;;3.78;1.95;;;12.30;72.70;;;;;;5035177;28;20025;-76
2022/04/06 06:11:05;;;;;;;3.67;1.95;;;12.30;72.80;;;;;;5006676;28;20041;-77
2022/04/06 06:13:31;;;;;;;3.25;2.08;;;12.30;72.70;;;;;;5029345;28;20102;-75
2022/04/06 06:15:57;;;;;;;2.67;1.95;;;12.30;72.70;;;;;;5036782;28;20029;-75
2022/04/06 06:18:25;;;;;;;2.42;1.80;;;12.30;72.70;;;;;;5033361;28;20030;-76
2022/04/06 06:20:50;;;;;;;3.05;1.75;;;12.30;72.70;;;;;;5026532;28;20535;-75
2022/04/06 06:23:16;;;;;;;2.88;1.90;;;12.30;72.70;;;;;;5012603;28;20033;-75
2022/04/06 06:25:42;;;;;;;3.63;2.17;;;12.30;72.70;;;;;;5032666;28;20033;-75
2022/04/06 06:28:08;;;;;;;3.47;2.20;;;12.30;72.70;;;;;;5034656;28;20037;-75
2022/04/06 06:30:34;;;;;;;5.00;2.63;;;12.30;72.70;;;;;;5020936;28;20052;-75
2022/04/06 06:33:00;;;;;;;2.67;2.08;;;12.30;72.70;;;;;;5028900;28;20033;-75
2022/04/06 06:35:26;;;;;;;3.85;2.20;;;12.30;72.70;;;;;;5012403;28;20068;-76
2022/04/06 06:37:54;;;;;;;3.42;1.88;;;12.30;72.60;;;;;;5020865;28;20354;-75
2022/04/06 06:40:21;;;;;;;2.10;1.77;;;12.30;72.60;;;;;;5012336;28;20026;-75
2022/04/06 06:42:47;;;;;;;2.85;1.90;;;12.30;72.60;;;;;;5037282;28;20424;-75
2022/04/06 06:45:13;;;;;;;4.93;2.55;;;12.30;72.60;;;;;;5033905;28;20036;-74
2022/04/06 06:47:40;;;;;;;2.88;1.88;;;12.30;72.60;;;;;;5040512;28;20052;-74
2022/04/06 06:50:07;;;;;;;3.22;2.13;;;12.30;72.60;;;;;;5022279;28;20041;-75
2022/04/06 06:52:36;;;;;;;4.20;2.13;;;12.30;73.20;;;;;;5028913;28;20033;-74
2022/04/06 06:55:07;;;;;;;3.08;2.00;;;12.30;72.60;;;;;;5029701;28;20029;-74
2022/04/06 06:57:34;;;;;;;2.90;2.10;;;12.30;72.60;;;;;;5040221;28;20017;-76
2022/04/06 06:59:59;;;;;;;3.65;2.22;;;12.30;72.60;;;;;;5039408;28;20017;-75
2022/04/06 07:02:25;;;;;;;3.65;2.17;;;12.30;72.60;;;;;;5017321;28;20029;-76
2022/04/06 07:04:51;;;;;;;3.97;2.30;;;12.30;72.60;;;;;;5040727;28;20048;-74
2022/04/06 07:07:17;;;;;;;3.35;2.17;;;12.30;72.50;;;;;;5030861;28;20030;-77
2022/04/06 07:09:43;;;;;;;3.28;1.90;;;12.30;72.50;;;;;;5040145;28;20044;-75
2022/04/06 07:12:10;;;;;;;4.60;2.00;;;12.30;72.50;;;;;;5023200;28;20025;-75
2022/04/06 07:14:36;;;;;;;3.67;2.50;;;12.30;72.50;;;;;;5032444;28;20022;-75
2022/04/06 07:17:03;;;;;;;4.95;2.28;;;12.30;72.60;;;;;;5016455;28;20053;-74
2022/04/06 07:19:28;;;;;;;2.92;2.20;;;12.30;72.50;;;;;;5038319;28;20033;-75
2022/04/06 07:21:54;;;;;;;4.47;2.60;;;12.30;72.60;;;;;;5027155;28;20428;-75
2022/04/06 07:24:20;;;;;;;3.50;2.00;;;12.40;72.60;;;;;;4986651;28;20513;-75
2022/04/06 07:26:45;;;;;;;2.85;2.10;;;12.30;72.60;;;;;;5033676;28;20125;-75
2022/04/06 07:29:11;;;;;;;3.67;2.13;;;12.30;72.50;;;;;;5038669;28;20091;-78
2022/04/06 07:31:42;;;;;;;4.72;2.15;;;12.40;72.60;;;;;;5024165;28;20531;-75
2022/04/06 07:34:09;;;;;;;4.32;2.30;;;12.40;72.60;;;;;;5040571;28;20022;-75
2022/04/06 07:36:35;;;;;;;3.17;2.10;;;12.40;72.60;;;;;;5024191;28;20030;-75
2022/04/06 07:39:05;;;;;;;2.95;1.90;;;12.40;72.60;;;;;;5018239;28;20021;-76
2022/04/06 07:41:31;;;;;;;3.63;2.03;;;12.40;72.60;;;;;;5040745;28;20037;-76
2022/04/06 07:43:57;;;;;;;3.40;1.80;;;12.40;72.60;;;;;;5017498;28;20116;-75
2022/04/06 07:46:23;;;;;;;3.47;2.00;;;12.40;72.60;;;;;;5038205;28;20127;-77
2022/04/06 07:48:49;;;;;;;3.17;2.00;;;12.40;72.60;;;;;;5009731;28;20029;-76
2022/04/06 07:51:16;;;;;;;3.28;1.95;;;12.40;72.60;;;;;;5034400;28;20083;-76
2022/04/06 07:53:42;;;;;;;3.58;2.25;;;12.40;72.60;;;;;;5032225;28;20026;-76
2022/04/06 07:56:08;;;;;;;3.63;2.00;;;12.40;72.50;;;;;;5041735;28;20484;-76
2022/04/06 07:58:34;;;;;;;2.92;1.80;;;12.50;72.60;;;;;;5041375;28;20017;-75
2022/04/06 08:01:02;;;;;;;3.08;1.70;;;12.50;72.60;;;;;;5031732;28;20386;-76
2022/04/06 08:03:29;;;;;;;3.35;2.25;;;12.50;72.60;;;;;;5031793;28;20029;-76
2022/04/06 08:05:56;;;;;;;2.42;1.73;;;12.50;72.60;;;;;;5031405;28;20021;-76
2022/04/06 08:08:22;;;;;;;3.67;1.80;;;12.50;72.50;;;;;;4994271;28;20129;-76
2022/04/06 08:10:48;;;;;;;2.83;1.90;;;12.50;72.50;;;;;;5023343;28;20131;-77
2022/04/06 08:13:14;;;;;;;2.58;1.60;;;12.50;72.50;;;;;;5033059;28;20152;-76
2022/04/06 08:15:40;;;;;;;3.05;1.65;;;12.50;72.50;;;;;;5041233;28;20049;-76
2022/04/06 08:18:06;;;;;;;2.97;1.70;;;12.60;72.50;;;;;;5031712;28;20120;-76
2022/04/06 08:20:33;;;;;;;2.50;1.67;;;12.60;72.50;;;;;;5050332;28;20099;-76
2022/04/06 08:22:59;;;;;;;2.58;1.70;;;12.60;72.60;;;;;;5037231;28;20056;-77
2022/04/06 08:25:25;;;;;;;1.88;1.55;;;12.60;72.50;;;;;;5015232;28;20471;-76
2022/04/06 08:27:51;;;;;;;4.07;1.75;;;12.60;72.50;;;;;;5039032;28;20176;-76
2022/04/06 08:30:20;;;;;;;1.95;1.48;;;12.70;72.50;;;;;;5034550;28;20021;-77
2022/04/06 08:32:46;;;;;;;3.22;1.77;;;12.70;72.50;;;;;;5031600;28;20529;-76
2022/04/06 08:35:12;;;;;;;1.75;1.50;;;12.70;72.50;;;;;;5020386;28;20021;-76
2022/04/06 08:37:39;;;;;;;3.25;1.77;;;12.70;72.50;;;;;;5041603;28;20021;-76
2022/04/06 08:40:12;;;;;;;2.90;1.60;;;12.70;72.50;;;;;;5034285;28;20441;-76
2022/04/06 08:42:39;;;;;;;2.60;1.70;;;12.70;72.50;;;;;;5038535;28;20465;-76
2022/04/06 08:45:06;;;;;;;3.05;1.60;;;12.70;72.40;;;;;;5038567;28;20044;-77
2022/04/06 08:47:33;;;;;;;1.88;1.30;;;12.80;72.50;;;;;;5022738;28;20057;-76
2022/04/06 08:50:03;;;;;;;2.78;1.60;;;12.80;72.50;;;;;;5041365;28;20053;-76
2022/04/06 08:52:32;;;;;;;3.15;1.63;;;12.80;72.40;;;;;;5037336;28;20079;-76
2022/04/06 08:54:58;;;;;;;2.97;1.90;;;12.80;72.40;;;;;;5039402;28;20028;-76
2022/04/06 08:57:24;;;;;;;2.38;1.40;;;12.80;72.40;;;;;;5024696;28;20037;-75
2022/04/06 08:59:49;;;;;;;2.13;1.60;;;12.80;72.40;;;;;;5034453;28;20075;-77
2022/04/06 09:02:20;;;;;;;2.60;1.60;;;12.80;72.40;;;;;;5042852;28;20474;-77
2022/04/06 09:04:53;;;;;;;2.35;1.52;;;12.80;72.40;;;;;;5041868;28;20143;-77
2022/04/06 09:07:23;;;;;;;3.08;1.70;;;12.80;72.40;;;;;;5021518;28;20029;-76
2022/04/06 09:09:53;;;;;;;4.45;1.83;;;12.90;72.40;;;;;;5014104;28;20514;-76
2022/04/06 09:12:21;;;;;;;4.03;1.88;;;12.90;72.40;;;;;;5007584;28;20088;-77
2022/04/06 09:14:47;;;;;;;2.35;1.75;;;12.90;72.40;;;;;;5025237;28;20036;-75
2022/04/06 09:17:19;;;;;;;2.67;1.50;;;12.90;72.40;;;;;;5041358;28;20082;-76
2022/04/06 09:19:47;;;;;;;2.38;1.65;;;12.90;72.40;;;;;;5039725;28;20099;-77
2022/04/06 09:22:13;;;;;;;2.33;1.75;;;13.00;72.40;;;;;;5038057;28;20036;-76
2022/04/06 09:24:38;;;;;;;2.03;1.42;;;13.00;72.40;;;;;;5021820;28;20475;-75
2022/04/06 09:27:05;;;;;;;2.75;1.90;;;13.00;72.40;;;;;;5030448;28;20088;-77
2022/04/06 09:29:31;;;;;;;3.20;1.60;;;13.00;72.50;;;;;;5038174;28;20094;-76
2022/04/06 09:32:06;;;;;;;2.38;1.60;;;13.00;72.50;;;;;;5034403;28;20060;-75
2022/04/06 09:34:33;;;;;;;2.78;1.80;;;13.00;72.50;;;;;;5038794;28;20029;-76
2022/04/06 09:36:59;;;;;;;2.35;1.75;;;13.00;72.50;;;;;;5038519;28;20052;-76
2022/04/06 09:39:46;;;;;;;1.60;1.50;;;13.00;72.50;;;;;;5036388;28;20075;-77
2022/04/06 09:42:20;;;;;;;1.95;1.48;;;13.10;72.80;;;;;;5021427;28;20025;-76
2022/04/06 09:47:40;;;;;;;2.42;1.80;;;13.10;72.70;;;;;;5041694;28;20453;-75
2022/04/06 09:50:14;;;;;;;2.30;1.80;;;13.10;72.60;;;;;;5017844;28;20029;-74
2022/04/06 09:52:42;;;;;;;3.03;1.80;;;13.10;72.80;;;;;;5049658;28;20155;-73
2022/04/06 09:55:10;;;;;;;3.97;2.00;;;13.10;72.70;;;;;;5039523;28;20028;-75
2022/04/06 09:57:45;;;;;;;2.97;2.00;;;13.10;72.80;;;;;;5053751;28;20436;-77
2022/04/06 10:00:13;;;;;;;;;;;13.10;72.80;;;;;;5040388;28;20029;-74
2022/04/06 10:02:42;;;;;;;1.92;1.60;;;13.10;72.80;;;;;;5033708;28;20492;-74
2022/04/06 10:05:12;;;;;;;2.50;1.80;;;13.10;72.70;;;;;;5035138;28;20032;-74
2022/04/06 10:07:42;;;;;;;3.78;1.75;;;13.10;72.80;;;;;;5035111;28;20029;-74
2022/04/06 10:10:08;;;;;;;2.15;1.90;;;13.10;72.90;;;;;;5037719;28;20036;-75
2022/04/06 10:12:33;;;;;;;3.53;1.98;;;13.10;72.90;;;;;;5038863;28;20101;-74
2022/04/06 10:15:03;;;;;;;3.72;2.03;;;13.10;72.90;;;;;;5021700;28;20117;-75
2022/04/06 10:17:29;;;;;;;2.30;1.90;;;13.10;72.90;;;;;;5032463;28;20706;-74
2022/04/06 10:20:08;;;;;;;3.13;1.90;;;13.10;72.90;;;;;;5035504;28;20491;-75
2022/04/06 10:23:02;;;;;;;3.65;2.10;;;13.10;73.00;;;;;;5031364;28;20077;-74
2022/04/06 10:25:52;;;;;;;2.53;1.75;;;13.20;73.10;;;;;;5038272;28;20036;-74
2022/04/06 10:28:20;;;;;;;3.50;2.40;;;13.20;73.00;;;;;;5042157;28;20029;-74
2022/04/06 10:31:22;;;;;;;2.70;1.98;;;13.20;72.90;;;;;;5037307;28;20053;-75
2022/04/06 10:33:49;;;;;;;2.95;2.03;;;13.20;73.10;;;;;;5037244;28;20025;-74
2022/04/06 10:36:26;;;;;;;4.22;2.28;;;13.20;72.90;;;;;;5032279;28;20052;-75
2022/04/06 10:39:07;;;;;;;3.30;2.03;;;13.20;73.10;;;;;;5012394;28;20509;-73
2022/04/06 10:41:34;;;;;;;2.75;2.10;;;13.20;73.10;;;;;;5036236;28;20385;-74
2022/04/06 10:44:00;;;;;;;3.67;2.20;;;13.20;73.10;;;;;;5033947;28;20425;-75
2022/04/06 10:46:38;;;;;;;3.03;2.20;;;13.20;73.10;;;;;;5029027;28;20458;-74
2022/04/06 10:49:07;;;;;;;2.90;2.03;;;13.20;73.10;;;;;;5037262;28;20030;-73
2022/04/06 10:51:34;;;;;;;3.15;2.13;;;13.20;73.10;;;;;;5044543;28;20036;-74
2022/04/06 10:54:13;;;;;;;3.13;2.10;;;13.20;73.10;;;;;;5039786;28;20029;-74
2022/04/06 10:57:01;;;;;;;3.58;2.33;;;13.20;73.20;;;;;;5039727;28;20032;-74
2022/04/06 10:59:30;;;;;;;4.03;2.38;;;13.30;73.20;;;;;;5030317;28;20029;-74
2022/04/06 11:02:18;;;;;;;3.05;2.20;;;13.20;73.60;;;;;;5029399;28;20471;-75
2022/04/06 11:04:44;;;;;;;3.60;2.33;;;13.30;73.20;;;;;;5023514;28;20390;-75
2022/04/06 11:07:10;;;;;;;3.67;2.70;;;13.20;73.70;;;;;;5046421;28;20026;-77
2022/04/06 11:12:33;;;;;;;3.33;2.30;;;13.20;73.10;;;;;;5032419;28;20022;-76
2022/04/06 11:14:59;;;;;;;3.45;2.28;;;13.20;73.10;;;;;;5029907;28;20057;-75
2022/04/06 11:17:34;;;;;;;5.10;3.13;;;13.30;73.20;;;;;;5030436;28;20025;-75
2022/04/06 11:20:09;;;;;;;3.03;2.38;;;13.20;73.20;;;;;;5037141;28;20037;-76
2022/04/06 11:22:43;;;;;;;3.13;2.47;;;13.30;73.20;;;;;;5046892;28;20049;-76
2022/04/06 11:25:11;;;;;;;3.35;2.17;;;13.30;73.20;;;;;;5040733;28;20060;-75
2022/04/06 11:27:39;;;;;;;2.80;2.45;;;13.30;73.20;;;;;;5037437;28;20025;-76
2022/04/06 11:30:12;;;;;;;2.85;2.30;;;13.30;73.20;;;;;;5038380;28;20041;-76
2022/04/06 11:32:40;;;;;;;2.90;2.35;;;13.30;73.30;;;;;;5037463;28;20055;-75
2022/04/06 11:35:07;;;;;;;5.18;2.67;;;13.30;73.20;;;;;;5033433;28;20021;-75
2022/04/06 11:37:42;;;;;;;3.30;2.35;;;13.30;73.20;;;;;;5014059;28;20057;-76
2022/04/06 11:40:09;;;;;;;3.22;2.05;;;13.30;73.30;;;;;;5035717;28;20037;-76
2022/04/06 11:42:35;;;;;;;3.20;2.40;;;13.30;73.20;;;;;;5019700;28;20094;-77
2022/04/06 11:45:00;;;;;;;3.78;2.38;;;13.30;73.20;;;;;;5037189;28;20124;-76
2022/04/06 11:47:31;;;;;;;3.22;2.28;;;13.30;73.30;;;;;;5036725;28;20467;-77
2022/04/06 11:49:57;;;;;;;3.28;2.53;;;13.30;73.30;;;;;;5028573;28;20084;-76
2022/04/06 11:52:23;;;;;;;3.72;2.53;;;13.30;73.20;;;;;;5029544;28;20021;-75
2022/04/06 11:54:51;;;;;;;3.50;2.30;;;13.40;73.30;;;;;;5029117;28;20111;-76
2022/04/06 11:57:16;;;;;;;3.25;2.22;;;13.30;73.20;;;;;;5004613;28;20021;-77
2022/04/06 11:59:53;;;;;;;2.40;2.20;;;13.40;73.30;;;;;;5034342;28;20051;-76
2022/04/06 12:02:19;;;;;;;3.45;2.50;;;13.30;73.30;;;;;;5013353;28;20025;-75
2022/04/06 12:04:48;;;;;;;2.42;2.22;;;13.40;73.20;;;;;;5008508;28;20045;-76
2022/04/06 12:07:19;;;;;;;3.58;2.20;;;13.40;73.20;;;;;;5015198;28;20502;-76
2022/04/06 12:09:46;;;;;;;4.32;2.63;;;13.40;73.30;;;;;;5023680;28;20406;-77
2022/04/06 12:12:13;;;;;;;3.00;2.38;;;13.40;73.30;;;;;;5038109;28;20029;-76
2022/04/06 12:14:41;;;;;;;3.33;2.40;;;13.40;73.30;;;;;;5036222;28;20037;-76
2022/04/06 12:17:07;;;;;;;2.72;2.10;;;13.40;73.30;;;;;;5032320;28;20087;-77
2022/04/06 12:19:33;;;;;;;3.50;2.40;;;13.40;73.30;;;;;;5033389;28;20029;-76
2022/04/06 12:22:11;;;;;;;2.25;1.98;;;13.50;73.30;;;;;;5042082;28;20060;-76
2022/04/06 12:24:43;;;;;;;2.83;2.00;;;13.50;73.30;;;;;;5033495;28;20056;-75
2022/04/06 12:27:10;;;;;;;3.35;2.40;;;13.50;73.30;;;;;;5036231;28;20428;-78
2022/04/06 12:29:36;;;;;;;3.15;2.20;;;13.50;73.30;;;;;;5038275;28;20037;-78
2022/04/06 12:32:05;;;;;;;3.60;2.20;;;13.50;73.30;;;;;;5032459;28;20103;-77
2022/04/06 12:34:37;;;;;;;3.10;2.33;;;13.50;73.30;;;;;;5034119;28;20025;-75
2022/04/06 12:39:58;;;;;;;2.35;2.15;;;13.50;73.20;;;;;;5033770;28;20091;-76
2022/04/06 12:42:25;;;;;;;;;;;13.50;73.30;;;;;;5025140;28;20029;-76
2022/04/06 12:45:06;;;;;;;1.90;1.60;;;13.50;73.10;;;;;;5048951;28;19915;-76
2022/04/06 12:47:31;;;;;;;2.40;2.20;;;13.50;73.10;;;;;;5032306;28;20029;-77
2022/04/06 12:50:19;;;;;;;2.60;2.08;;;13.50;73.10;;;;;;5041195;28;20038;-76
2022/04/06 12:52:47;;;;;;;2.53;2.10;;;13.50;73.30;;;;;;5042624;28;20106;-76
2022/04/06 12:55:15;;;;;;;3.72;2.30;;;13.60;73.30;;;;;;5014485;28;20388;-75
2022/04/06 12:57:42;;;;;;;3.60;2.15;;;13.60;73.20;;;;;;5015100;28;20039;-75
2022/04/06 13:00:15;;;;;;;3.63;2.05;;;13.60;73.20;;;;;;5036781;28;20045;-75
2022/04/06 13:02:46;;;;;;;3.15;2.33;;;13.60;73.30;;;;;;5042071;28;20033;-76
2022/04/06 13:05:14;;;;;;;3.55;2.15;;;13.60;73.20;;;;;;5042062;28;20033;-75